Time;durP1;ratioP1;P1;durP2;ratioP2;P2;SDS_P1;SDS_P2;PMS_P1;PMS_P2;Temp;Humidity;BMP_temperature;BMP_pressure;BME280_temperature;BME280_humidity;BME280_pressure;Samples;Min_cycle;Max_cycle;Signal;HPM_P1;HPM_P2
2023/07/24 00:01:04;;;;;;;4.40;2.50;;;;;;;;;;5069764;28;20416;-67
2023/07/24 00:03:30;;;;;;;4.40;4.10;;;;;;;;;;5070432;28;20108;-66
2023/07/24 00:05:58;;;;;;;4.97;2.80;;;;;;;;;;5070412;28;20021;-65
2023/07/24 00:08:23;;;;;;;;;;;;;;;;;;5072061;28;20016;-66
2023/07/24 00:10:48;;;;;;;3.17;2.72;;;;;;;;;;5071559;28;19908;-66
2023/07/24 00:13:14;;;;;;;4.90;3.42;;;;;;;;;;5069979;28;20550;-66
2023/07/24 00:15:39;;;;;;;4.20;3.78;;;;;;;;;;5071407;28;20064;-66
2023/07/24 00:18:04;;;;;;;3.78;3.15;;;;;;;;;;5069598;28;20151;-66
2023/07/24 00:20:30;;;;;;;4.87;3.70;;;;;;;;;;5071776;28;20013;-66
2023/07/24 00:22:55;;;;;;;4.45;3.70;;;;;;;;;;5069703;28;20461;-67
2023/07/24 00:25:20;;;;;;;4.90;4.33;;;;;;;;;;5061069;28;20021;-67
2023/07/24 00:27:45;;;;;;;4.47;4.10;;;;;;;;;;5050051;28;20521;-67
2023/07/24 00:30:11;;;;;;;5.80;4.37;;;;;;;;;;5051149;28;20494;-68
2023/07/24 00:32:36;;;;;;;8.55;4.38;;;;;;;;;;5055056;28;20032;-67
2023/07/24 00:35:01;;;;;;;4.80;4.03;;;;;;;;;;5071100;28;20029;-66
2023/07/24 00:37:26;;;;;;;4.60;4.20;;;;;;;;;;5069940;28;20040;-67
2023/07/24 00:39:52;;;;;;;7.25;4.97;;;;;;;;;;5071024;28;20013;-67
2023/07/24 00:42:17;;;;;;;6.68;4.35;;;;;;;;;;5069298;28;20042;-68
2023/07/24 00:44:42;;;;;;;4.20;3.67;;;;;;;;;;5069805;28;20032;-67
2023/07/24 00:47:07;;;;;;;6.47;3.93;;;;;;;;;;5068685;28;20105;-67
2023/07/24 00:49:33;;;;;;;5.05;4.55;;;;;;;;;;5071187;28;21004;-67
2023/07/24 00:51:58;;;;;;;5.60;5.10;;;;;;;;;;5069722;28;20502;-67
2023/07/24 00:54:23;;;;;;;4.95;4.25;;;;;;;;;;5070372;28;20025;-67
2023/07/24 00:56:48;;;;;;;4.53;4.10;;;;;;;;;;5069588;28;20069;-67
2023/07/24 00:59:14;;;;;;;5.35;4.85;;;;;;;;;;5070775;28;20020;-67
2023/07/24 01:01:41;;;;;;;6.50;4.15;;;;;;;;;;5069195;28;20033;-67
2023/07/24 01:04:06;;;;;;;5.68;5.07;;;;;;;;;;5070258;28;20035;-69
2023/07/24 01:06:32;;;;;;;4.95;4.03;;;;;;;;;;5069453;28;20124;-67
2023/07/24 01:08:57;;;;;;;6.37;4.90;;;;;;;;;;5070536;28;20090;-65
2023/07/24 01:11:28;;;;;;;5.53;5.03;;;;;;;;;;5069092;28;20119;-65
2023/07/24 01:13:59;;;;;;;4.40;3.42;;;;;;;;;;5070567;28;20025;-64
2023/07/24 01:16:29;;;;;;;7.20;3.38;;;;;;;;;;5068682;28;20522;-65
2023/07/24 01:18:55;;;;;;;3.88;3.55;;;;;;;;;;5070838;28;20039;-65
2023/07/24 01:21:22;;;;;;;5.20;4.22;;;;;;;;;;5069056;28;20639;-65
2023/07/24 01:23:53;;;;;;;3.78;3.25;;;;;;;;;;5070223;28;20448;-66
2023/07/24 01:26:19;;;;;;;6.22;4.25;;;;;;;;;;5069114;28;20037;-66
2023/07/24 01:28:44;;;;;;;3.92;3.05;;;;;;;;;;5070766;28;20027;-66
2023/07/24 01:31:09;;;;;;;7.25;4.15;;;;;;;;;;5068121;28;20024;-66
2023/07/24 01:33:35;;;;;;;4.27;3.97;;;;;;;;;;5070795;28;20487;-66
2023/07/24 01:36:01;;;;;;;5.72;4.03;;;;;;;;;;5068889;28;20515;-65
2023/07/24 01:38:27;;;;;;;6.63;3.90;;;;;;;;;;5070385;28;20025;-66
2023/07/24 01:40:56;;;;;;;4.13;3.72;;;;;;;;;;5070398;28;20103;-67
2023/07/24 01:43:21;;;;;;;5.05;4.05;;;;;;;;;;5068926;28;20060;-73
2023/07/24 01:45:46;;;;;;;4.35;3.55;;;;;;;;;;5070006;28;20048;-66
2023/07/24 01:48:11;;;;;;;6.63;4.00;;;;;;;;;;5068644;28;20037;-66
2023/07/24 01:50:37;;;;;;;4.70;3.80;;;;;;;;;;5070378;28;20024;-66
2023/07/24 01:53:02;;;;;;;7.00;5.07;;;;;;;;;;5068254;28;20127;-66
2023/07/24 01:55:27;;;;;;;5.60;3.73;;;;;;;;;;5070554;28;20450;-67
2023/07/24 01:57:52;;;;;;;4.03;3.73;;;;;;;;;;5068885;28;20043;-66
2023/07/24 02:00:17;;;;;;;4.30;3.90;;;;;;;;;;5073650;28;20036;-67
2023/07/24 02:02:42;;;;;;;4.63;3.80;;;;;;;;;;5071044;28;20483;-67
2023/07/24 02:05:08;;;;;;;5.03;4.53;;;;;;;;;;5074183;28;20794;-67
2023/07/24 02:07:33;;;;;;;4.93;4.47;;;;;;;;;;5072343;28;20068;-66
2023/07/24 02:09:58;;;;;;;8.97;5.47;;;;;;;;;;5073892;28;20027;-66
2023/07/24 02:12:23;;;;;;;7.60;6.37;;;;;;;;;;5072204;28;20086;-66
2023/07/24 02:14:49;;;;;;;6.00;5.43;;;;;;;;;;5073738;28;20976;-66
2023/07/24 02:17:15;;;;;;;10.82;5.15;;;;;;;;;;5072021;28;20076;-65
2023/07/24 02:19:40;;;;;;;10.15;5.07;;;;;;;;;;5073963;28;20021;-65
2023/07/24 02:22:05;;;;;;;13.85;7.50;;;;;;;;;;5071839;28;20029;-65
2023/07/24 02:24:30;;;;;;;8.27;6.27;;;;;;;;;;5073543;28;20440;-66
2023/07/24 02:26:56;;;;;;;6.15;5.10;;;;;;;;;;5072285;28;20446;-65
2023/07/24 02:29:22;;;;;;;5.73;5.03;;;;;;;;;;5072473;28;20031;-67
2023/07/24 02:31:47;;;;;;;7.35;6.65;;;;;;;;;;5072204;28;20557;-67
2023/07/24 02:34:12;;;;;;;5.95;5.20;;;;;;;;;;5073119;28;20021;-67
2023/07/24 02:36:38;;;;;;;11.45;6.55;;;;;;;;;;5071244;28;20410;-66
2023/07/24 02:39:04;;;;;;;6.88;6.28;;;;;;;;;;5072916;28;20086;-67
2023/07/24 02:41:29;;;;;;;9.23;5.00;;;;;;;;;;5070885;28;20495;-67
2023/07/24 02:43:54;;;;;;;6.28;5.68;;;;;;;;;;5073228;28;20048;-67
2023/07/24 02:46:19;;;;;;;6.23;5.10;;;;;;;;;;5071482;28;20265;-67
2023/07/24 02:48:44;;;;;;;6.15;5.55;;;;;;;;;;5073467;28;20414;-74
2023/07/24 02:51:09;;;;;;;6.97;4.47;;;;;;;;;;5071312;28;20116;-65
2023/07/24 02:53:34;;;;;;;7.23;6.53;;;;;;;;;;5073357;28;20012;-65
2023/07/24 02:56:00;;;;;;;8.05;6.32;;;;;;;;;;5071742;28;20020;-64
2023/07/24 02:58:26;;;;;;;11.93;6.43;;;;;;;;;;5053039;28;20013;-66
2023/07/24 03:00:51;;;;;;;9.83;5.60;;;;;;;;;;5053262;28;20488;-66
2023/07/24 03:03:16;;;;;;;8.88;5.60;;;;;;;;;;5070721;28;20453;-67
2023/07/24 03:05:41;;;;;;;7.43;4.50;;;;;;;;;;5072375;28;20384;-65
2023/07/24 03:08:06;;;;;;;8.20;5.38;;;;;;;;;;5070984;28;20040;-66
2023/07/24 03:10:31;;;;;;;8.05;5.05;;;;;;;;;;5072929;28;20040;-66
2023/07/24 03:12:56;;;;;;;7.95;6.45;;;;;;;;;;5071564;28;20560;-66
2023/07/24 03:15:22;;;;;;;5.33;4.83;;;;;;;;;;5072685;28;20016;-66
2023/07/24 03:17:47;;;;;;;5.28;4.78;;;;;;;;;;5071178;28;20540;-66
2023/07/24 03:20:18;;;;;;;9.20;6.03;;;;;;;;;;5071480;28;20467;-68
2023/07/24 03:22:44;;;;;;;8.88;5.63;;;;;;;;;;5070732;28;20037;-69
2023/07/24 03:25:09;;;;;;;6.93;4.93;;;;;;;;;;5071963;28;20021;-67
2023/07/24 03:27:34;;;;;;;7.30;5.68;;;;;;;;;;5059279;28;20047;-67
2023/07/24 03:29:59;;;;;;;10.03;5.20;;;;;;;;;;5052162;28;20025;-67
2023/07/24 03:32:24;;;;;;;8.40;5.17;;;;;;;;;;5063173;28;20848;-67
2023/07/24 03:34:50;;;;;;;7.27;5.00;;;;;;;;;;5072417;28;20807;-66
2023/07/24 03:37:15;;;;;;;16.93;6.10;;;;;;;;;;5068883;28;20041;-67
2023/07/24 03:39:40;;;;;;;6.80;6.00;;;;;;;;;;5072556;28;20074;-67
2023/07/24 03:42:05;;;;;;;9.48;5.55;;;;;;;;;;5070674;28;20041;-67
2023/07/24 03:44:30;;;;;;;14.95;6.47;;;;;;;;;;5070564;28;20479;-67
2023/07/24 03:46:55;;;;;;;13.43;6.60;;;;;;;;;;5070701;28;20032;-67
2023/07/24 03:49:22;;;;;;;9.60;6.85;;;;;;;;;;5071950;28;20035;-67
2023/07/24 03:51:47;;;;;;;10.77;6.45;;;;;;;;;;5070572;28;20380;-66
2023/07/24 03:54:12;;;;;;;12.53;7.00;;;;;;;;;;5071767;28;20028;-67
2023/07/24 03:56:37;;;;;;;12.57;5.93;;;;;;;;;;5070236;28;20036;-65
2023/07/24 03:59:02;;;;;;;11.13;6.73;;;;;;;;;;5071332;28;20029;-65
2023/07/24 04:01:28;;;;;;;11.10;6.47;;;;;;;;;;5070912;28;20037;-64
2023/07/24 04:03:53;;;;;;;12.27;7.37;;;;;;;;;;5071880;28;20609;-65
2023/07/24 04:06:18;;;;;;;12.97;7.37;;;;;;;;;;5069564;28;20036;-65
2023/07/24 04:08:43;;;;;;;9.33;7.77;;;;;;;;;;5071824;28;20383;-66
2023/07/24 04:11:08;;;;;;;12.38;8.88;;;;;;;;;;5070182;28;20025;-67
2023/07/24 04:13:33;;;;;;;19.10;8.98;;;;;;;;;;5068466;28;20024;-65
2023/07/24 04:15:59;;;;;;;12.53;8.70;;;;;;;;;;5063584;28;20140;-63
2023/07/24 04:18:24;;;;;;;14.15;8.18;;;;;;;;;;5064685;28;20017;-65
2023/07/24 04:20:49;;;;;;;14.07;8.73;;;;;;;;;;5057834;28;20471;-65
2023/07/24 04:23:14;;;;;;;15.45;9.77;;;;;;;;;;5068553;28;20451;-65
2023/07/24 04:25:39;;;;;;;14.30;9.07;;;;;;;;;;5071368;28;20048;-66
2023/07/24 04:28:05;;;;;;;24.83;9.37;;;;;;;;;;5068956;28;20045;-66
2023/07/24 04:30:30;;;;;;;12.40;9.47;;;;;;;;;;5070880;28;20058;-68
2023/07/24 04:32:55;;;;;;;16.05;8.63;;;;;;;;;;5068632;28;20041;-67
2023/07/24 04:35:20;;;;;;;16.40;9.70;;;;;;;;;;5070913;28;20040;-67
2023/07/24 04:37:45;;;;;;;15.57;8.02;;;;;;;;;;5069781;28;20047;-67
2023/07/24 04:40:11;;;;;;;9.63;8.63;;;;;;;;;;5066165;28;20013;-67
2023/07/24 04:42:36;;;;;;;9.02;6.38;;;;;;;;;;5057628;28;20040;-67
2023/07/24 04:45:01;;;;;;;12.20;7.97;;;;;;;;;;5070732;28;20491;-67
2023/07/24 04:47:26;;;;;;;14.07;7.73;;;;;;;;;;5067943;28;21048;-67
2023/07/24 04:49:51;;;;;;;8.93;7.23;;;;;;;;;;5069662;28;20044;-67
2023/07/24 04:52:17;;;;;;;9.97;6.77;;;;;;;;;;5069416;28;20534;-67
2023/07/24 04:54:42;;;;;;;12.52;7.93;;;;;;;;;;5071186;28;20024;-67
2023/07/24 04:57:07;;;;;;;11.87;7.87;;;;;;;;;;5068946;28;20415;-67
2023/07/24 04:59:32;;;;;;;13.30;7.23;;;;;;;;;;5071067;28;20020;-71
2023/07/24 05:01:57;;;;;;;12.57;7.73;;;;;;;;;;5068497;28;20447;-67
2023/07/24 05:04:22;;;;;;;10.10;7.30;;;;;;;;;;5070417;28;20069;-67
2023/07/24 05:06:48;;;;;;;9.77;7.87;;;;;;;;;;5068880;28;20461;-67
2023/07/24 05:09:14;;;;;;;9.50;6.18;;;;;;;;;;5070726;28;20024;-67
2023/07/24 05:11:39;;;;;;;11.48;6.22;;;;;;;;;;5069087;28;19955;-67
2023/07/24 05:14:04;;;;;;;10.82;7.40;;;;;;;;;;5070865;28;20052;-67
2023/07/24 05:16:31;;;;;;;8.20;6.03;;;;;;;;;;5069462;28;20143;-68
2023/07/24 05:18:56;;;;;;;9.93;7.97;;;;;;;;;;5070798;28;20016;-66
2023/07/24 05:21:21;;;;;;;10.23;7.32;;;;;;;;;;5069175;28;20094;-65
2023/07/24 05:23:46;;;;;;;8.05;7.03;;;;;;;;;;5070942;28;20025;-66
2023/07/24 05:26:11;;;;;;;9.57;7.40;;;;;;;;;;5068971;28;20021;-67
2023/07/24 05:28:36;;;;;;;8.03;6.50;;;;;;;;;;5070410;28;20108;-69
2023/07/24 05:31:02;;;;;;;9.63;7.47;;;;;;;;;;5069324;28;20025;-69
2023/07/24 05:33:27;;;;;;;8.95;6.68;;;;;;;;;;5071555;28;20410;-69
2023/07/24 05:35:57;;;;;;;10.23;7.10;;;;;;;;;;5072642;28;20109;-66
2023/07/24 05:38:22;;;;;;;18.13;7.40;;;;;;;;;;5074579;28;20421;-68
2023/07/24 05:40:53;;;;;;;12.48;7.88;;;;;;;;;;5074637;28;20028;-67
2023/07/24 05:43:18;;;;;;;10.30;6.50;;;;;;;;;;5072523;28;20041;-67
2023/07/24 05:45:43;;;;;;;7.32;5.70;;;;;;;;;;5074649;28;20024;-68
2023/07/24 05:48:09;;;;;;;14.43;5.63;;;;;;;;;;5072761;28;20086;-67
2023/07/24 05:50:34;;;;;;;5.95;4.90;;;;;;;;;;5074156;28;20031;-68
2023/07/24 05:52:59;;;;;;;5.53;5.03;;;;;;;;;;5073133;28;20028;-68
2023/07/24 05:55:24;;;;;;;6.20;5.60;;;;;;;;;;5074414;28;20025;-68
2023/07/24 05:57:49;;;;;;;5.85;5.25;;;;;;;;;;5072659;28;20060;-68
2023/07/24 06:00:14;;;;;;;6.93;5.53;;;;;;;;;;5074440;28;20078;-68
2023/07/24 06:02:40;;;;;;;6.10;5.25;;;;;;;;;;5072821;28;20060;-69
2023/07/24 06:05:05;;;;;;;6.72;5.68;;;;;;;;;;5073614;28;20023;-75
2023/07/24 06:07:30;;;;;;;6.07;5.38;;;;;;;;;;5072806;28;20376;-68
2023/07/24 06:09:55;;;;;;;7.90;6.78;;;;;;;;;;5074119;28;20099;-68
2023/07/24 06:12:20;;;;;;;6.60;5.93;;;;;;;;;;5072220;28;20495;-67
2023/07/24 06:14:45;;;;;;;8.63;6.73;;;;;;;;;;5074408;28;20016;-68
2023/07/24 06:17:11;;;;;;;9.70;6.27;;;;;;;;;;5072303;28;20487;-69
2023/07/24 06:19:36;;;;;;;11.87;8.73;;;;;;;;;;5073538;28;20411;-69
2023/07/24 06:22:01;;;;;;;7.30;5.87;;;;;;;;;;5072409;28;20106;-69
2023/07/24 06:24:26;;;;;;;7.88;6.57;;;;;;;;;;5073590;28;20023;-68
2023/07/24 06:26:51;;;;;;;11.65;6.80;;;;;;;;;;5070708;28;20448;-68
2023/07/24 06:29:16;;;;;;;8.55;6.50;;;;;;;;;;5071589;28;20025;-68
2023/07/24 06:31:42;;;;;;;8.90;8.07;;;;;;;;;;5070127;28;20032;-68
2023/07/24 06:34:07;;;;;;;10.23;7.75;;;;;;;;;;5069849;28;20603;-69
2023/07/24 06:36:32;;;;;;;10.43;8.18;;;;;;;;;;5070288;28;20036;-69
2023/07/24 06:38:57;;;;;;;10.87;7.37;;;;;;;;;;5071506;28;20059;-68
2023/07/24 06:41:23;;;;;;;11.83;7.73;;;;;;;;;;5062131;28;20037;-68
2023/07/24 06:43:48;;;;;;;9.32;8.18;;;;;;;;;;5072082;28;20021;-68
2023/07/24 06:46:13;;;;;;;11.48;8.60;;;;;;;;;;5058729;28;20075;-68
2023/07/24 06:48:38;;;;;;;10.38;8.10;;;;;;;;;;5053075;28;20025;-68
2023/07/24 06:51:04;;;;;;;13.45;8.73;;;;;;;;;;5051513;28;20480;-68
2023/07/24 06:53:29;;;;;;;9.75;8.77;;;;;;;;;;5053439;28;20024;-68
2023/07/24 06:55:54;;;;;;;10.98;9.50;;;;;;;;;;5051725;28;20067;-67
2023/07/24 06:58:19;;;;;;;9.05;7.57;;;;;;;;;;5064702;28;20476;-68
2023/07/24 07:00:44;;;;;;;11.48;8.15;;;;;;;;;;5073078;28;20186;-68
2023/07/24 07:03:09;;;;;;;19.33;8.50;;;;;;;;;;5069724;28;20395;-68
2023/07/24 07:05:35;;;;;;;9.40;7.97;;;;;;;;;;5073309;28;20012;-68
2023/07/24 07:08:00;;;;;;;9.73;8.83;;;;;;;;;;5071571;28;20037;-69
2023/07/24 07:10:25;;;;;;;10.70;9.03;;;;;;;;;;5072176;28;20040;-73
2023/07/24 07:12:50;;;;;;;13.63;10.40;;;;;;;;;;5067926;28;20556;-67
2023/07/24 07:15:15;;;;;;;9.68;8.77;;;;;;;;;;5069852;28;20043;-68
2023/07/24 07:17:41;;;;;;;41.17;11.50;;;;;;;;;;5071082;28;20068;-67
2023/07/24 07:20:06;;;;;;;9.87;8.83;;;;;;;;;;5072521;28;20023;-68
2023/07/24 07:22:31;;;;;;;14.15;11.48;;;;;;;;;;5071210;28;20446;-67
2023/07/24 07:24:56;;;;;;;15.40;11.18;;;;;;;;;;5072267;28;20486;-67
2023/07/24 07:27:21;;;;;;;16.67;10.48;;;;;;;;;;5070861;28;20044;-68
2023/07/24 07:29:47;;;;;;;11.70;10.47;;;;;;;;;;5072442;28;20030;-68
2023/07/24 07:32:12;;;;;;;13.03;11.37;;;;;;;;;;5070612;28;20043;-67
2023/07/24 07:34:38;;;;;;;12.82;11.38;;;;;;;;;;5073042;28;20024;-68
2023/07/24 07:37:03;;;;;;;13.48;10.80;;;;;;;;;;5070100;28;20044;-68
2023/07/24 07:39:29;;;;;;;12.52;11.10;;;;;;;;;;5069295;28;20374;-68
2023/07/24 07:41:54;;;;;;;12.23;10.98;;;;;;;;;;5070488;28;20040;-68
2023/07/24 07:44:19;;;;;;;12.43;11.30;;;;;;;;;;5072276;28;20012;-67
2023/07/24 07:46:45;;;;;;;12.27;11.00;;;;;;;;;;5070264;28;20097;-68
2023/07/24 07:49:10;;;;;;;14.73;11.63;;;;;;;;;;5070379;28;20019;-67
2023/07/24 07:51:35;;;;;;;13.18;11.98;;;;;;;;;;5068982;28;20459;-67
2023/07/24 07:54:00;;;;;;;15.80;11.05;;;;;;;;;;5070470;28;20099;-67
2023/07/24 07:56:25;;;;;;;14.00;12.57;;;;;;;;;;5067891;28;20521;-67
2023/07/24 07:58:50;;;;;;;12.73;11.43;;;;;;;;;;5070345;28;20020;-68
2023/07/24 08:01:15;;;;;;;13.68;12.23;;;;;;;;;;5068592;28;20033;-67
2023/07/24 08:03:41;;;;;;;17.80;11.27;;;;;;;;;;5070129;28;20020;-68
2023/07/24 08:06:06;;;;;;;12.65;11.35;;;;;;;;;;5068930;28;20279;-67
2023/07/24 08:08:31;;;;;;;13.97;11.37;;;;;;;;;;5071914;28;20032;-68
2023/07/24 08:10:57;;;;;;;15.20;11.65;;;;;;;;;;5070108;28;20450;-67
2023/07/24 08:13:22;;;;;;;14.90;11.43;;;;;;;;;;5071464;28;20103;-68
2023/07/24 08:15:47;;;;;;;12.67;9.97;;;;;;;;;;5071916;28;20023;-67
2023/07/24 08:18:12;;;;;;;12.83;10.50;;;;;;;;;;5068709;28;20407;-68
2023/07/24 08:20:38;;;;;;;9.77;8.87;;;;;;;;;;5068313;28;20115;-68
2023/07/24 08:23:03;;;;;;;13.52;11.50;;;;;;;;;;5069733;28;20042;-68
2023/07/24 08:25:28;;;;;;;13.32;11.80;;;;;;;;;;5061293;28;20021;-68
2023/07/24 08:27:54;;;;;;;12.43;9.50;;;;;;;;;;5050062;28;20045;-68
2023/07/24 08:30:19;;;;;;;12.38;10.23;;;;;;;;;;5066453;28;20503;-68
2023/07/24 08:32:44;;;;;;;11.60;9.27;;;;;;;;;;5049688;28;20064;-67
2023/07/24 08:35:09;;;;;;;17.92;9.30;;;;;;;;;;5051213;28;20033;-67
2023/07/24 08:37:34;;;;;;;8.70;7.80;;;;;;;;;;5049968;28;20041;-69
2023/07/24 08:40:00;;;;;;;10.90;9.80;;;;;;;;;;5060766;28;20503;-68
2023/07/24 08:42:25;;;;;;;10.53;8.17;;;;;;;;;;5068554;28;20037;-68
2023/07/24 08:44:51;;;;;;;16.27;8.82;;;;;;;;;;5071235;28;20486;-68
2023/07/24 08:47:17;;;;;;;10.27;8.13;;;;;;;;;;5068383;28;20032;-74
2023/07/24 08:49:42;;;;;;;9.85;8.48;;;;;;;;;;5070758;28;20383;-67
2023/07/24 08:52:09;;;;;;;12.85;9.55;;;;;;;;;;5069443;28;20089;-67
2023/07/24 08:54:38;;;;;;;9.68;7.75;;;;;;;;;;5070964;28;20099;-67
2023/07/24 08:57:05;;;;;;;10.48;9.05;;;;;;;;;;5069630;28;20494;-67
2023/07/24 08:59:30;;;;;;;13.50;9.27;;;;;;;;;;5070986;28;20044;-67
2023/07/24 09:01:56;;;;;;;17.17;8.75;;;;;;;;;;5069091;28;20028;-67
2023/07/24 09:04:21;;;;;;;11.77;10.23;;;;;;;;;;5071097;28;20025;-67
2023/07/24 09:06:46;;;;;;;11.23;9.93;;;;;;;;;;5069423;28;20486;-67
2023/07/24 09:09:12;;;;;;;13.52;9.82;;;;;;;;;;5070323;28;20016;-67
2023/07/24 09:11:45;;;;;;;15.68;10.43;;;;;;;;;;5069429;28;20407;-66
2023/07/24 09:14:19;;;;;;;11.82;10.57;;;;;;;;;;5070563;28;20021;-67
2023/07/24 09:16:44;;;;;;;13.85;10.57;;;;;;;;;;5068958;28;20028;-67
2023/07/24 09:19:16;;;;;;;12.07;9.07;;;;;;;;;;5070545;28;20493;-66
2023/07/24 09:21:42;;;;;;;14.55;9.60;;;;;;;;;;5067085;28;21061;-67
2023/07/24 09:24:11;;;;;;;16.33;12.05;;;;;;;;;;5064832;28;20051;-67
2023/07/24 09:26:46;;;;;;;11.02;10.00;;;;;;;;;;5069169;28;20040;-68
2023/07/24 09:29:11;;;;;;;13.63;11.13;;;;;;;;;;5070186;28;20020;-68
2023/07/24 09:31:36;;;;;;;13.30;10.57;;;;;;;;;;5068953;28;20098;-68
2023/07/24 09:34:02;;;;;;;14.40;11.75;;;;;;;;;;5070925;28;20379;-67
2023/07/24 09:36:36;;;;;;;13.98;12.48;;;;;;;;;;5069172;28;20055;-66
2023/07/24 09:39:06;;;;;;;12.10;10.60;;;;;;;;;;5068644;28;20050;-66
2023/07/24 09:41:31;;;;;;;11.95;10.75;;;;;;;;;;5069454;28;20043;-67
2023/07/24 09:43:59;;;;;;;13.97;12.47;;;;;;;;;;5070570;28;20016;-67
2023/07/24 09:46:24;;;;;;;12.68;11.23;;;;;;;;;;5068546;28;20028;-67
2023/07/24 09:48:49;;;;;;;14.18;12.02;;;;;;;;;;5070518;28;20021;-67
2023/07/24 09:51:15;;;;;;;13.60;12.02;;;;;;;;;;5068884;28;20040;-68
2023/07/24 09:53:45;;;;;;;21.30;12.67;;;;;;;;;;5070302;28;20577;-67
2023/07/24 09:56:10;;;;;;;14.82;13.27;;;;;;;;;;5068675;28;20021;-67
2023/07/24 09:58:36;;;;;;;12.87;11.53;;;;;;;;;;5070620;28;20019;-68
2023/07/24 10:01:02;;;;;;;19.02;13.55;;;;;;;;;;5068535;28;20381;-66
2023/07/24 10:03:28;;;;;;;20.70;13.20;;;;;;;;;;5067955;28;20036;-68
2023/07/24 10:05:54;;;;;;;14.02;12.13;;;;;;;;;;5064708;28;20472;-66
2023/07/24 10:08:19;;;;;;;12.48;11.27;;;;;;;;;;5068429;28;20009;-73
2023/07/24 10:10:45;;;;;;;11.80;10.23;;;;;;;;;;5069630;28;20027;-67
2023/07/24 10:13:12;;;;;;;10.43;9.20;;;;;;;;;;5068472;28;20516;-68
2023/07/24 10:15:38;;;;;;;10.40;8.20;;;;;;;;;;5069235;28;20070;-67
2023/07/24 10:18:05;;;;;;;11.30;10.30;;;;;;;;;;5067327;28;20748;-67
2023/07/24 10:20:38;;;;;;;11.30;10.02;;;;;;;;;;5071316;28;20021;-67
2023/07/24 10:23:03;;;;;;;16.13;9.52;;;;;;;;;;5070472;28;20037;-67
2023/07/24 10:25:30;;;;;;;10.35;7.97;;;;;;;;;;5072798;28;20070;-67
2023/07/24 10:28:00;;;;;;;10.50;7.78;;;;;;;;;;5070533;28;20120;-67
2023/07/24 10:30:28;;;;;;;11.95;7.85;;;;;;;;;;5072383;28;20035;-67
2023/07/24 10:32:53;;;;;;;8.90;7.60;;;;;;;;;;5071761;28;20029;-67
2023/07/24 10:35:20;;;;;;;12.87;7.63;;;;;;;;;;5072934;28;20093;-68
2023/07/24 10:37:46;;;;;;;7.90;6.73;;;;;;;;;;5071111;28;20029;-67
2023/07/24 10:40:19;;;;;;;9.07;6.97;;;;;;;;;;5072548;28;20017;-67
2023/07/24 10:42:44;;;;;;;8.25;7.45;;;;;;;;;;5071344;28;20043;-68
2023/07/24 10:45:10;;;;;;;7.85;7.13;;;;;;;;;;5072116;28;20419;-68
2023/07/24 10:47:35;;;;;;;8.25;7.45;;;;;;;;;;5071023;28;20071;-75
2023/07/24 10:50:02;;;;;;;13.60;8.00;;;;;;;;;;5072883;28;20101;-67
2023/07/24 10:52:28;;;;;;;7.78;6.97;;;;;;;;;;5071512;28;20514;-67
2023/07/24 10:54:53;;;;;;;8.27;7.47;;;;;;;;;;5073484;28;20016;-67
2023/07/24 10:57:24;;;;;;;7.38;6.20;;;;;;;;;;5071793;28;20392;-67
2023/07/24 10:59:49;;;;;;;10.88;8.30;;;;;;;;;;5073107;28;20032;-67
2023/07/24 11:02:16;;;;;;;7.97;7.25;;;;;;;;;;5071467;28;20094;-67
2023/07/24 11:04:41;;;;;;;8.50;7.38;;;;;;;;;;5073293;28;20016;-67
2023/07/24 11:07:06;;;;;;;8.47;7.67;;;;;;;;;;5069610;28;20115;-67
2023/07/24 11:09:36;;;;;;;9.20;8.30;;;;;;;;;;5073063;28;20415;-65
2023/07/24 11:12:08;;;;;;;8.73;7.40;;;;;;;;;;5071513;28;20045;-66
2023/07/24 11:14:33;;;;;;;10.65;8.63;;;;;;;;;;5072727;28;20460;-66
2023/07/24 11:16:59;;;;;;;8.93;8.05;;;;;;;;;;5071384;28;20039;-66
2023/07/24 11:19:24;;;;;;;7.40;6.45;;;;;;;;;;5072805;28;20360;-66
2023/07/24 11:21:49;;;;;;;9.85;8.95;;;;;;;;;;5071029;28;20044;-66
2023/07/24 11:24:17;;;;;;;9.77;8.10;;;;;;;;;;5072447;28;20016;-74
2023/07/24 11:26:42;;;;;;;9.52;7.55;;;;;;;;;;5071382;28;20538;-66
2023/07/24 11:29:11;;;;;;;10.40;7.22;;;;;;;;;;5070899;28;20048;-66
2023/07/24 11:31:38;;;;;;;8.52;7.53;;;;;;;;;;5071070;28;20495;-65
2023/07/24 11:34:03;;;;;;;9.73;6.93;;;;;;;;;;5072468;28;20019;-66
2023/07/24 11:36:28;;;;;;;11.00;8.30;;;;;;;;;;5066426;28;20040;-66
2023/07/24 11:38:53;;;;;;;10.67;7.07;;;;;;;;;;5070116;28;20502;-66
2023/07/24 11:41:19;;;;;;;9.50;7.27;;;;;;;;;;5070829;28;20536;-65
2023/07/24 11:43:46;;;;;;;10.13;8.55;;;;;;;;;;5054674;28;20029;-66
2023/07/24 11:46:11;;;;;;;8.15;7.35;;;;;;;;;;5050623;28;20048;-65
2023/07/24 11:48:41;;;;;;;9.90;7.23;;;;;;;;;;5052249;28;20052;-66
2023/07/24 11:51:06;;;;;;;7.80;7.10;;;;;;;;;;5050031;28;20400;-65
2023/07/24 11:53:31;;;;;;;8.95;8.05;;;;;;;;;;5051931;28;20020;-66
2023/07/24 11:56:01;;;;;;;8.40;7.53;;;;;;;;;;5051195;28;20021;-65
2023/07/24 11:58:28;;;;;;;9.82;7.30;;;;;;;;;;5052467;28;20017;-66
2023/07/24 12:00:54;;;;;;;10.13;8.13;;;;;;;;;;5051952;28;20056;-67
2023/07/24 12:03:21;;;;;;;8.77;7.55;;;;;;;;;;5050610;28;20040;-66
2023/07/24 12:05:46;;;;;;;9.93;7.50;;;;;;;;;;5051950;28;20025;-66
2023/07/24 12:08:13;;;;;;;10.20;8.10;;;;;;;;;;5048571;28;20582;-66
2023/07/24 12:10:39;;;;;;;13.77;7.33;;;;;;;;;;5052206;28;20108;-66
2023/07/24 12:13:04;;;;;;;8.48;6.53;;;;;;;;;;5049965;28;20546;-66
2023/07/24 12:15:30;;;;;;;8.73;7.85;;;;;;;;;;5051673;28;20021;-66
2023/07/24 12:17:56;;;;;;;10.30;9.15;;;;;;;;;;5050340;28;20041;-66
2023/07/24 12:20:21;;;;;;;9.73;8.82;;;;;;;;;;5051798;28;20071;-66
2023/07/24 12:22:47;;;;;;;8.17;7.33;;;;;;;;;;5049520;28;20029;-66
2023/07/24 12:25:12;;;;;;;9.05;7.22;;;;;;;;;;5051344;28;20025;-66
2023/07/24 12:27:39;;;;;;;8.93;8.02;;;;;;;;;;5049975;28;20063;-66
2023/07/24 12:30:05;;;;;;;7.85;7.00;;;;;;;;;;5051173;28;20029;-66
2023/07/24 12:32:31;;;;;;;9.52;8.23;;;;;;;;;;5050232;28;20381;-66
2023/07/24 12:34:56;;;;;;;11.03;9.37;;;;;;;;;;5051234;28;20020;-67
2023/07/24 12:37:21;;;;;;;13.57;9.13;;;;;;;;;;5048161;28;20041;-66
2023/07/24 12:39:47;;;;;;;9.33;7.57;;;;;;;;;;5051461;28;20020;-66
2023/07/24 12:42:12;;;;;;;10.55;8.52;;;;;;;;;;5049044;28;20448;-65
2023/07/24 12:44:37;;;;;;;10.80;8.32;;;;;;;;;;5051234;28;20062;-66
2023/07/24 12:47:03;;;;;;;10.05;8.48;;;;;;;;;;5049588;28;20395;-66
2023/07/24 12:49:28;;;;;;;9.30;7.75;;;;;;;;;;5049735;28;20020;-66
2023/07/24 12:51:54;;;;;;;11.07;9.18;;;;;;;;;;5049470;28;20450;-66
2023/07/24 12:54:19;;;;;;;12.82;8.73;;;;;;;;;;5051184;28;20023;-66
2023/07/24 12:56:45;;;;;;;10.45;8.63;;;;;;;;;;5049564;28;20127;-65
2023/07/24 12:59:10;;;;;;;11.00;9.15;;;;;;;;;;5050530;28;20017;-66
2023/07/24 13:01:35;;;;;;;9.27;8.30;;;;;;;;;;5049677;28;20083;-66
2023/07/24 13:04:00;;;;;;;11.90;7.70;;;;;;;;;;5050919;28;20048;-66
2023/07/24 13:06:25;;;;;;;9.57;8.68;;;;;;;;;;5049126;28;20090;-66
2023/07/24 13:08:51;;;;;;;11.43;7.63;;;;;;;;;;5051000;28;20360;-67
2023/07/24 13:11:16;;;;;;;8.27;7.47;;;;;;;;;;5048955;28;20071;-65
2023/07/24 13:13:42;;;;;;;10.27;7.75;;;;;;;;;;5050601;28;20017;-66
2023/07/24 13:16:07;;;;;;;13.45;9.27;;;;;;;;;;5049363;28;20439;-66
2023/07/24 13:18:32;;;;;;;16.52;10.15;;;;;;;;;;5054638;28;20106;-67
2023/07/24 13:20:57;;;;;;;10.57;6.87;;;;;;;;;;5067752;28;20430;-65
2023/07/24 13:23:22;;;;;;;11.03;7.83;;;;;;;;;;5070412;28;20020;-66
2023/07/24 13:25:48;;;;;;;13.45;8.63;;;;;;;;;;5055304;28;20095;-66
2023/07/24 13:28:13;;;;;;;9.47;7.80;;;;;;;;;;5048830;28;20040;-66
2023/07/24 13:30:38;;;;;;;8.05;6.63;;;;;;;;;;5050565;28;20488;-66
2023/07/24 13:33:03;;;;;;;10.70;7.13;;;;;;;;;;5048651;28;20036;-66
2023/07/24 13:35:29;;;;;;;8.83;7.80;;;;;;;;;;5050199;28;20492;-67
2023/07/24 13:37:54;;;;;;;8.47;7.10;;;;;;;;;;5049238;28;20116;-67
2023/07/24 13:40:19;;;;;;;9.57;8.57;;;;;;;;;;5050497;28;20020;-67
2023/07/24 13:42:44;;;;;;;7.95;6.88;;;;;;;;;;5048813;28;20144;-66
2023/07/24 13:45:09;;;;;;;9.73;7.30;;;;;;;;;;5068995;28;20019;-66
2023/07/24 13:47:35;;;;;;;9.18;8.32;;;;;;;;;;5069000;28;20473;-65
2023/07/24 13:50:03;;;;;;;11.33;9.23;;;;;;;;;;5057801;28;20020;-66
2023/07/24 13:52:28;;;;;;;11.10;8.38;;;;;;;;;;5056327;28;20025;-66
2023/07/24 13:54:53;;;;;;;13.43;8.40;;;;;;;;;;5072055;28;20463;-66
2023/07/24 13:57:18;;;;;;;8.38;7.57;;;;;;;;;;5072500;28;20434;-66
2023/07/24 13:59:43;;;;;;;10.27;7.88;;;;;;;;;;5074429;28;20035;-66
2023/07/24 14:02:08;;;;;;;10.23;9.23;;;;;;;;;;5061972;28;20048;-66
2023/07/24 14:04:33;;;;;;;10.30;8.80;;;;;;;;;;5052537;28;20102;-66
2023/07/24 14:06:59;;;;;;;11.03;9.43;;;;;;;;;;5059463;28;20039;-67
2023/07/24 14:09:24;;;;;;;26.30;10.98;;;;;;;;;;5072772;28;20038;-66
2023/07/24 14:11:49;;;;;;;11.88;7.43;;;;;;;;;;5072041;28;20047;-67
2023/07/24 14:14:15;;;;;;;12.07;8.40;;;;;;;;;;5073342;28;20097;-66
2023/07/24 14:16:40;;;;;;;11.38;9.63;;;;;;;;;;5071769;28;20071;-66
2023/07/24 14:19:05;;;;;;;12.02;9.23;;;;;;;;;;5072879;28;20048;-67
2023/07/24 14:21:30;;;;;;;10.10;9.07;;;;;;;;;;5071841;28;20041;-66
2023/07/24 14:23:56;;;;;;;9.32;7.20;;;;;;;;;;5073788;28;20174;-66
2023/07/24 14:26:21;;;;;;;8.60;7.80;;;;;;;;;;5072110;28;20037;-65